Time;durP1;ratioP1;P1;durP2;ratioP2;P2;SDS_P1;SDS_P2;PMS_P1;PMS_P2;Temp;Humidity;BMP_temperature;BMP_pressure;BME280_temperature;BME280_humidity;BME280_pressure;Samples;Min_cycle;Max_cycle;Signal;HPM_P1;HPM_P2
2022/08/20 00:00:08;;;;;;;;;;;;;;;22.14;28.80;97545.56;4827194;29;1034;-78
2022/08/20 00:02:40;;;;;;;;;;;;;;;22.13;28.86;97541.16;4821985;29;969;-78
2022/08/20 00:05:06;;;;;;;;;;;;;;;21.96;29.25;97542.53;4840239;29;1907;-76
2022/08/20 00:07:31;;;;;;;;;;;;;;;21.98;28.88;97535.19;4845445;29;976;-77
2022/08/20 00:09:56;;;;;;;;;;;;;;;22.27;28.32;97540.63;4864992;29;992;-77
2022/08/20 00:12:22;;;;;;;;;;;;;;;22.25;28.58;97542.34;4885988;29;917;-77
2022/08/20 00:14:47;;;;;;;;;;;;;;;22.32;28.55;97545.69;4920295;29;1050;-78
2022/08/20 00:17:13;;;;;;;;;;;;;;;22.15;28.81;97543.53;4919913;29;977;-77
2022/08/20 00:19:38;;;;;;;;;;;;;;;22.07;28.82;97528.78;4919989;29;924;-78
2022/08/20 00:22:04;;;;;;;;;;;;;;;22.31;28.55;97535.63;4920566;29;1209;-77
2022/08/20 00:24:29;;;;;;;;;;;;;;;22.21;28.59;97536.00;4970626;28;1903;-78
2022/08/20 00:26:55;;;;;;;;;;;;;;;22.31;28.42;97529.16;4979693;28;1002;-78
2022/08/20 00:29:20;;;;;;;;;;;;;;;22.22;28.71;97537.59;4979741;28;1019;-78
2022/08/20 00:31:46;;;;;;;;;;;;;;;22.25;28.49;97525.34;4979262;28;936;-78
2022/08/20 00:34:11;;;;;;;;;;;;;;;22.09;28.76;97517.81;4979800;28;969;-78
2022/08/20 00:36:36;;;;;;;;;;;;;;;22.36;28.49;97520.06;4979562;28;840;-78
2022/08/20 00:39:02;;;;;;;;;;;;;;;22.26;28.73;97522.03;4979603;28;965;-77
2022/08/20 00:41:28;;;;;;;;;;;;;;;22.44;28.68;97509.28;4957890;29;967;-77
2022/08/20 00:43:59;;;;;;;;;;;;;;;22.31;28.59;97507.28;4957590;29;1903;-78
2022/08/20 00:46:26;;;;;;;;;;;;;;;22.21;29.05;97519.81;4957848;29;1040;-77
2022/08/20 00:48:52;;;;;;;;;;;;;;;22.05;29.02;97517.13;4922706;29;1637;-78
2022/08/20 00:51:18;;;;;;;;;;;;;;;22.14;28.92;97511.56;4922652;29;951;-78
2022/08/20 00:53:43;;;;;;;;;;;;;;;22.14;29.05;97503.06;4938296;29;958;-77
2022/08/20 00:56:09;;;;;;;;;;;;;;;22.24;28.78;97504.72;4922865;29;993;-77
2022/08/20 00:58:34;;;;;;;;;;;;;;;22.29;28.60;97497.69;4881541;29;988;-77
2022/08/20 01:01:00;;;;;;;;;;;;;;;22.08;28.89;97496.38;4881827;29;920;-77
2022/08/20 01:03:26;;;;;;;;;;;;;;;22.04;29.28;97498.56;4881864;29;2001;-77
2022/08/20 01:05:51;;;;;;;;;;;;;;;22.23;28.91;97494.66;4881786;29;1031;-77
2022/08/20 01:08:17;;;;;;;;;;;;;;;21.95;29.33;97492.81;4881692;29;1047;-77
2022/08/20 01:10:47;;;;;;;;;;;;;;;22.02;28.95;97490.53;4865944;29;1211;-78
2022/08/20 01:13:14;;;;;;;;;;;;;;;22.16;28.78;97494.88;4881601;29;946;-77
2022/08/20 01:15:40;;;;;;;;;;;;;;;21.99;29.29;97485.78;4884904;29;980;-78
2022/08/20 01:18:06;;;;;;;;;;;;;;;22.12;28.94;97493.44;4899898;29;1009;-78
2022/08/20 01:20:33;;;;;;;;;;;;;;;22.12;29.29;97488.56;4876946;29;936;-78
2022/08/20 01:23:26;;;;;;;;;;;;;;;22.45;28.48;97493.84;4880952;29;1406;-78
2022/08/20 01:26:10;;;;;;;;;;;;;;;22.14;28.97;97486.06;4881140;29;938;-77
2022/08/20 01:28:38;;;;;;;;;;;;;;;22.11;28.92;97481.31;4883065;29;912;-78
2022/08/20 01:31:04;;;;;;;;;;;;;;;22.24;29.05;97484.88;4883987;29;947;-78
2022/08/20 01:33:30;;;;;;;;;;;;;;;22.22;29.02;97486.59;4880913;29;942;-77
2022/08/20 01:35:56;;;;;;;;;;;;;;;22.19;28.88;97482.66;4881422;29;963;-77
2022/08/20 01:38:21;;;;;;;;;;;;;;;22.23;28.79;97483.31;4844129;29;1031;-78
2022/08/20 01:40:56;;;;;;;;;;;;;;;22.25;28.79;97469.47;4843887;29;1012;-78
2022/08/20 01:43:22;;;;;;;;;;;;;;;22.09;29.15;97472.47;4842826;29;2050;-78
2022/08/20 01:45:48;;;;;;;;;;;;;;;22.16;28.93;97469.38;4843803;29;963;-77
2022/08/20 01:48:14;;;;;;;;;;;;;;;22.19;29.16;97474.16;4844300;29;1042;-78
2022/08/20 01:50:40;;;;;;;;;;;;;;;22.35;28.77;97473.94;4848809;29;1071;-78
2022/08/20 01:53:10;;;;;;;;;;;;;;;22.12;28.98;97471.56;4865552;29;946;-77
2022/08/20 01:55:36;;;;;;;;;;;;;;;22.11;29.26;97475.66;4890250;29;1009;-77
2022/08/20 01:58:01;;;;;;;;;;;;;;;22.20;29.16;97481.38;4899258;29;926;-78
2022/08/20 02:00:27;;;;;;;;;;;;;;;22.06;29.11;97470.53;4899138;29;1089;-77
2022/08/20 02:02:52;;;;;;;;;;;;;;;21.91;29.16;97466.66;4899486;29;977;-78
2022/08/20 02:05:18;;;;;;;;;;;;;;;21.92;29.20;97471.09;4915308;29;1951;-78
2022/08/20 02:07:44;;;;;;;;;;;;;;;21.97;29.32;97459.16;4880351;29;991;-78
2022/08/20 02:10:10;;;;;;;;;;;;;;;21.97;29.48;97470.50;4880471;29;935;-77
2022/08/20 02:12:35;;;;;;;;;;;;;;;21.75;29.47;97465.56;4879947;29;932;-78
2022/08/20 02:15:01;;;;;;;;;;;;;;;22.00;28.93;97463.91;4877238;29;968;-79
2022/08/20 02:17:26;;;;;;;;;;;;;;;22.24;28.95;97461.44;4861948;29;934;-78
2022/08/20 02:19:57;;;;;;;;;;;;;;;22.25;28.83;97465.84;4861586;29;981;-78
2022/08/20 02:22:23;;;;;;;;;;;;;;;21.93;29.15;97464.94;4824949;29;917;-77
2022/08/20 02:24:48;;;;;;;;;;;;;;;22.03;28.99;97462.97;4812167;29;1976;-78
2022/08/20 02:27:14;;;;;;;;;;;;;;;21.97;29.22;97459.16;4843821;29;986;-78
2022/08/20 02:29:39;;;;;;;;;;;;;;;21.89;29.20;97446.50;4843605;29;979;-78
2022/08/20 02:32:05;;;;;;;;;;;;;;;22.02;28.97;97461.38;4843424;29;852;-77
2022/08/20 02:34:33;;;;;;;;;;;;;;;22.33;28.71;97470.78;4824968;29;963;-77
2022/08/20 02:36:59;;;;;;;;;;;;;;;22.20;28.61;97466.44;4825507;29;969;-78
2022/08/20 02:39:25;;;;;;;;;;;;;;;22.27;28.42;97464.09;4824890;29;1034;-78
2022/08/20 02:41:51;;;;;;;;;;;;;;;22.12;28.67;97471.56;4806622;29;1015;-77
2022/08/20 02:44:19;;;;;;;;;;;;;;;22.13;28.74;97466.72;4808745;29;1903;-77
2022/08/20 02:46:44;;;;;;;;;;;;;;;22.27;28.62;97471.81;4825068;29;1010;-78
2022/08/20 02:49:10;;;;;;;;;;;;;;;22.42;28.27;97460.72;4830458;29;1012;-78
2022/08/20 02:51:36;;;;;;;;;;;;;;;22.16;28.63;97469.38;4861279;29;970;-77
2022/08/20 02:54:01;;;;;;;;;;;;;;;22.33;28.23;97470.78;4889757;29;1018;-77
2022/08/20 02:56:26;;;;;;;;;;;;;;;22.30;28.52;97473.75;4898503;29;1003;-77
2022/08/20 02:58:52;;;;;;;;;;;;;;;22.18;28.69;97475.41;4908719;29;1406;-78
2022/08/20 03:01:17;;;;;;;;;;;;;;;22.24;28.70;97476.38;4917304;29;1623;-78
2022/08/20 03:03:43;;;;;;;;;;;;;;;22.24;28.61;97479.22;4916948;29;1994;-78
2022/08/20 03:06:08;;;;;;;;;;;;;;;22.23;28.55;97483.31;4916659;29;1471;-78
2022/08/20 03:08:34;;;;;;;;;;;;;;;21.98;28.92;97469.25;4893185;29;1245;-77
2022/08/20 03:10:59;;;;;;;;;;;;;;;22.14;28.59;97473.94;4921603;29;1603;-78
2022/08/20 03:13:25;;;;;;;;;;;;;;;21.97;29.17;97459.16;4960694;28;1623;-77
2022/08/20 03:15:51;;;;;;;;;;;;;;;21.82;29.00;97470.22;4957858;28;1543;-78
2022/08/20 03:18:17;;;;;;;;;;;;;;;21.79;29.45;97466.25;4950520;28;1628;-78
2022/08/20 03:20:43;;;;;;;;;;;;;;;22.14;28.64;97474.75;4996098;28;1000;-78
2022/08/20 03:23:08;;;;;;;;;;;;;;;22.00;28.99;97475.22;4954710;29;1245;-78
2022/08/20 03:25:34;;;;;;;;;;;;;;;22.16;28.58;97477.88;4936035;29;1985;-78
2022/08/20 03:27:59;;;;;;;;;;;;;;;22.18;28.59;97472.56;4904176;29;1050;-78
2022/08/20 03:30:25;;;;;;;;;;;;;;;22.19;28.57;97476.97;4935875;29;999;-78
2022/08/20 03:32:50;;;;;;;;;;;;;;;22.19;28.45;97474.16;4898200;29;1056;-78
2022/08/20 03:35:17;;;;;;;;;;;;;;;22.07;28.81;97470.09;4898077;29;955;-78
2022/08/20 03:37:43;;;;;;;;;;;;;;;22.04;28.79;97470.22;4879300;29;965;-78
2022/08/20 03:40:09;;;;;;;;;;;;;;;21.81;29.08;97479.94;4879098;29;1007;-77
2022/08/20 03:42:35;;;;;;;;;;;;;;;21.92;29.08;97479.59;4879520;29;1045;-78
2022/08/20 03:45:01;;;;;;;;;;;;;;;22.08;28.63;97476.56;4860670;29;1903;-77
2022/08/20 03:47:26;;;;;;;;;;;;;;;21.90;28.98;97479.22;4860975;29;951;-78
2022/08/20 03:49:51;;;;;;;;;;;;;;;21.94;28.79;97477.84;4860992;29;1091;-78
2022/08/20 03:52:17;;;;;;;;;;;;;;;22.17;28.60;97470.19;4860949;29;956;-78
2022/08/20 03:54:44;;;;;;;;;;;;;;;21.95;28.89;97475.81;4860967;29;948;-78
2022/08/20 03:57:13;;;;;;;;;;;;;;;21.79;29.07;97473.97;4841808;29;929;-78
2022/08/20 03:59:39;;;;;;;;;;;;;;;21.72;29.30;97472.19;4844462;29;951;-78
2022/08/20 04:02:05;;;;;;;;;;;;;;;21.93;28.95;97472.66;4862752;29;1155;-77
2022/08/20 04:04:30;;;;;;;;;;;;;;;22.00;28.87;97486.56;4879160;29;1984;-78
2022/08/20 04:06:56;;;;;;;;;;;;;;;22.27;28.53;97492.44;4881157;29;1073;-78
2022/08/20 04:09:21;;;;;;;;;;;;;;;22.25;28.63;97494.97;4887373;29;904;-78
2022/08/20 04:11:47;;;;;;;;;;;;;;;21.95;28.89;97495.63;4920159;29;1037;-78
2022/08/20 04:14:13;;;;;;;;;;;;;;;22.04;28.81;97492.88;4920154;29;1088;-79
2022/08/20 04:16:39;;;;;;;;;;;;;;;22.01;28.77;97488.13;4949946;28;925;-78
2022/08/20 04:19:05;;;;;;;;;;;;;;;22.01;29.17;97488.91;4958471;28;903;-78
2022/08/20 04:21:30;;;;;;;;;;;;;;;22.31;28.72;97492.31;4942375;29;1186;-78
2022/08/20 04:23:56;;;;;;;;;;;;;;;22.24;28.74;97496.22;4957949;28;1902;-78
2022/08/20 04:26:22;;;;;;;;;;;;;;;22.18;28.63;97486.75;4938498;29;933;-78
2022/08/20 04:28:48;;;;;;;;;;;;;;;22.27;28.68;97489.59;4900914;29;969;-78
2022/08/20 04:31:16;;;;;;;;;;;;;;;22.20;28.86;97495.56;4901073;29;1093;-78
2022/08/20 04:33:42;;;;;;;;;;;;;;;22.40;28.44;97500.09;4906111;29;928;-78
2022/08/20 04:36:08;;;;;;;;;;;;;;;22.11;29.15;97503.97;4938436;29;943;-78
2022/08/20 04:38:33;;;;;;;;;;;;;;;22.02;29.35;97501.03;4938665;29;904;-79
2022/08/20 04:40:59;;;;;;;;;;;;;;;22.17;28.87;97502.13;4938870;29;919;-78
2022/08/20 04:43:42;;;;;;;;;;;;;;;21.99;29.21;97501.97;4938584;29;1074;-78
2022/08/20 04:46:09;;;;;;;;;;;;;;;22.35;28.93;97502.28;4938325;29;919;-78
2022/08/20 04:48:38;;;;;;;;;;;;;;;22.36;28.85;97506.69;4938864;29;914;-78
2022/08/20 04:51:03;;;;;;;;;;;;;;;22.05;29.09;97505.78;4938498;29;942;-78
2022/08/20 04:53:29;;;;;;;;;;;;;;;22.16;29.19;97506.22;4900251;29;945;-78
2022/08/20 04:55:55;;;;;;;;;;;;;;;22.29;28.85;97498.47;4900580;29;970;-78
2022/08/20 04:58:22;;;;;;;;;;;;;;;22.21;28.89;97502.00;4879930;29;1010;-77
2022/08/20 05:00:48;;;;;;;;;;;;;;;22.23;28.81;97508.81;4881879;29;1035;-78
2022/08/20 05:03:14;;;;;;;;;;;;;;;22.35;28.76;97507.16;4881845;29;970;-79
2022/08/20 05:05:40;;;;;;;;;;;;;;;22.32;29.02;97503.19;4854404;29;1992;-78
2022/08/20 05:08:06;;;;;;;;;;;;;;;22.10;29.19;97505.22;4881636;29;953;-78
2022/08/20 05:10:31;;;;;;;;;;;;;;;22.15;29.05;97509.53;4835654;29;990;-78
2022/08/20 05:12:57;;;;;;;;;;;;;;;21.94;29.47;97508.22;4881534;29;1169;-78
2022/08/20 05:15:26;;;;;;;;;;;;;;;22.25;28.94;97511.19;4881440;29;907;-78
2022/08/20 05:18:01;;;;;;;;;;;;;;;22.32;28.79;97511.69;4880924;29;931;-78
2022/08/20 05:20:29;;;;;;;;;;;;;;;22.10;29.56;97506.03;4866267;29;942;-78
2022/08/20 05:22:55;;;;;;;;;;;;;;;22.22;29.16;97509.25;4881247;29;1038;-78
2022/08/20 05:25:20;;;;;;;;;;;;;;;22.20;29.42;97512.56;4897356;29;1991;-78
2022/08/20 05:27:46;;;;;;;;;;;;;;;22.25;29.11;97509.13;4899668;29;969;-78
2022/08/20 05:30:11;;;;;;;;;;;;;;;22.22;29.31;97515.72;4900331;29;987;-78
2022/08/20 05:32:37;;;;;;;;;;;;;;;22.44;29.26;97509.28;4899510;29;1317;-78
2022/08/20 05:35:03;;;;;;;;;;;;;;;22.43;29.11;97502.00;4899812;29;918;-78
2022/08/20 05:37:29;;;;;;;;;;;;;;;22.33;29.26;97504.78;4868370;29;1079;-78
2022/08/20 05:39:54;;;;;;;;;;;;;;;22.29;29.18;97509.78;4899962;29;1195;-78
2022/08/20 05:42:20;;;;;;;;;;;;;;;22.33;29.34;97501.16;4910348;29;991;-78
2022/08/20 05:44:45;;;;;;;;;;;;;;;22.40;29.17;97500.09;4956773;29;1971;-78
2022/08/20 05:47:11;;;;;;;;;;;;;;;22.53;28.86;97506.47;4956551;29;1160;-77
2022/08/20 05:49:37;;;;;;;;;;;;;;;22.41;29.16;97501.69;4956288;29;1042;-78
2022/08/20 05:52:02;;;;;;;;;;;;;;;22.47;29.25;97499.81;4956360;29;941;-78
2022/08/20 05:54:28;;;;;;;;;;;;;;;22.43;29.37;97491.44;4956385;29;850;-78
2022/08/20 05:56:54;;;;;;;;;;;;;;;22.33;29.35;97489.84;4956638;29;857;-78
2022/08/20 05:59:21;;;;;;;;;;;;;;;22.30;29.52;97494.38;4956376;29;964;-77
2022/08/20 06:01:46;;;;;;;;;;;;;;;22.33;29.34;97493.47;4956455;29;1012;-77
2022/08/20 06:04:25;;;;;;;;;;;;;;;22.43;29.59;97496.31;4987103;28;1902;-78
2022/08/20 06:07:10;;;;;;;;;;;;;;;22.34;29.65;97492.19;4997346;28;979;-78
2022/08/20 06:09:35;;;;;;;;;;;;;;;22.34;29.54;97491.41;4997419;28;968;-78
2022/08/20 06:12:01;;;;;;;;;;;;;;;22.42;29.65;97491.91;4996877;28;872;-78
2022/08/20 06:14:27;;;;;;;;;;;;;;;22.43;29.45;97485.00;4975264;28;947;-78
2022/08/20 06:16:52;;;;;;;;;;;;;;;22.34;29.50;97483.69;4975281;28;983;-78
2022/08/20 06:19:18;;;;;;;;;;;;;;;22.41;29.32;97487.50;4976005;28;977;-77
2022/08/20 06:21:43;;;;;;;;;;;;;;;22.31;29.65;97483.81;4975488;28;935;-77
2022/08/20 06:24:09;;;;;;;;;;;;;;;22.46;29.60;97484.88;4974942;28;1977;-78
2022/08/20 06:26:34;;;;;;;;;;;;;;;22.38;29.80;97489.22;4975671;28;947;-78
2022/08/20 06:29:00;;;;;;;;;;;;;;;22.36;29.51;97494.56;4974740;28;1024;-78
2022/08/20 06:31:26;;;;;;;;;;;;;;;22.24;29.84;97495.44;4975269;28;975;-78
2022/08/20 06:33:51;;;;;;;;;;;;;;;22.09;30.36;97495.13;4917486;29;954;-78
2022/08/20 06:36:17;;;;;;;;;;;;;;;22.27;30.11;97500.94;4917992;29;1036;-78
2022/08/20 06:38:44;;;;;;;;;;;;;;;22.43;29.84;97499.94;4917659;29;966;-78
2022/08/20 06:41:10;;;;;;;;;;;;;;;22.50;29.41;97501.75;4917603;29;974;-77
2022/08/20 06:43:35;;;;;;;;;;;;;;;22.50;29.72;97494.03;4917239;29;1907;-78
2022/08/20 06:46:01;;;;;;;;;;;;;;;22.50;29.58;97507.41;4931827;29;1007;-77
2022/08/20 06:48:27;;;;;;;;;;;;;;;22.55;29.39;97495.47;4936655;29;1083;-78
2022/08/20 06:50:52;;;;;;;;;;;;;;;22.53;29.71;97512.13;4936773;29;970;-78
2022/08/20 06:53:19;;;;;;;;;;;;;;;22.54;29.77;97502.41;4936517;29;963;-78
2022/08/20 06:55:46;;;;;;;;;;;;;;;22.54;29.76;97499.56;4936434;29;888;-78
2022/08/20 06:58:11;;;;;;;;;;;;;;;22.31;30.21;97500.81;4917531;29;964;-78
2022/08/20 07:00:39;;;;;;;;;;;;;;;22.39;29.77;97501.38;4917254;29;1022;-78
2022/08/20 07:03:04;;;;;;;;;;;;;;;22.13;30.50;97504.34;4917749;29;976;-78
2022/08/20 07:05:31;;;;;;;;;;;;;;;22.40;29.77;97502.94;4921229;29;1985;-78
2022/08/20 07:07:57;;;;;;;;;;;;;;;22.33;29.93;97504.78;4898437;29;1003;-78
2022/08/20 07:10:23;;;;;;;;;;;;;;;22.23;30.13;97497.47;4898206;29;973;-77
2022/08/20 07:12:49;;;;;;;;;;;;;;;22.30;30.34;97499.25;4898406;29;959;-78
2022/08/20 07:15:15;;;;;;;;;;;;;;;22.46;30.10;97506.75;4898376;29;957;-78
2022/08/20 07:17:41;;;;;;;;;;;;;;;22.39;30.13;97504.19;4914377;29;948;-78
2022/08/20 07:20:10;;;;;;;;;;;;;;;22.50;30.07;97498.91;4879630;29;946;-78
2022/08/20 07:22:35;;;;;;;;;;;;;;;22.41;30.02;97498.84;4879529;29;1073;-78
2022/08/20 07:25:03;;;;;;;;;;;;;;;22.46;29.77;97496.19;4879886;29;1990;-78
2022/08/20 07:27:28;;;;;;;;;;;;;;;22.29;30.17;97498.47;4879610;29;1044;-78
2022/08/20 07:32:38;;;;;;;;;;;;;;;22.59;29.72;97498.97;4879363;29;956;-78
2022/08/20 07:35:04;;;;;;;;;;;;;;;22.36;30.34;97492.50;4879653;29;1002;-78
2022/08/20 07:37:30;;;;;;;;;;;;;;;22.35;30.50;97495.81;4913761;29;966;-78
2022/08/20 07:39:55;;;;;;;;;;;;;;;22.38;30.16;97496.94;4887301;29;1029;-78
2022/08/20 07:42:20;;;;;;;;;;;;;;;22.63;29.62;97489.03;4939820;29;903;-79
2022/08/20 07:44:46;;;;;;;;;;;;;;;22.30;30.55;97502.88;4920184;29;1907;-78
2022/08/20 07:47:11;;;;;;;;;;;;;;;22.26;30.41;97499.38;4920930;29;944;-78
2022/08/20 07:49:40;;;;;;;;;;;;;;;22.35;30.05;97495.81;4920878;29;881;-77
2022/08/20 07:52:05;;;;;;;;;;;;;;;22.54;30.17;97500.34;4920531;29;1013;-78
2022/08/20 07:54:31;;;;;;;;;;;;;;;22.70;29.65;97488.00;4920279;29;934;-78
2022/08/20 07:57:01;;;;;;;;;;;;;;;22.36;30.28;97494.56;4930197;29;945;-78
2022/08/20 07:59:27;;;;;;;;;;;;;;;22.43;30.08;97490.66;4939320;29;1026;-78
2022/08/20 08:01:52;;;;;;;;;;;;;;;22.50;30.15;97491.19;4939315;29;969;-78
2022/08/20 08:04:17;;;;;;;;;;;;;;;22.26;30.40;97496.53;4939233;29;1903;-78
2022/08/20 08:06:44;;;;;;;;;;;;;;;22.28;30.41;97496.88;4939343;29;940;-78
2022/08/20 08:09:11;;;;;;;;;;;;;;;22.44;30.02;97492.25;4939269;29;1045;-78
2022/08/20 08:11:37;;;;;;;;;;;;;;;22.44;29.95;97492.25;4923645;29;1073;-78
2022/08/20 08:14:04;;;;;;;;;;;;;;;22.55;29.70;97495.47;4923484;29;955;-78
2022/08/20 08:16:31;;;;;;;;;;;;;;;22.75;29.78;97495.13;4938997;29;934;-78
2022/08/20 08:18:57;;;;;;;;;;;;;;;22.63;29.94;97493.94;4939310;29;908;-78
2022/08/20 08:21:23;;;;;;;;;;;;;;;22.60;30.14;97484.31;4906981;29;966;-77
2022/08/20 08:23:49;;;;;;;;;;;;;;;22.60;30.12;97483.53;4901005;29;1907;-78
2022/08/20 08:26:14;;;;;;;;;;;;;;;22.72;29.63;97468.47;4901082;29;1039;-78
2022/08/20 08:28:40;;;;;;;;;;;;;;;22.69;29.79;97472.25;4885422;29;1023;-78
2022/08/20 08:31:06;;;;;;;;;;;;;;;22.52;30.06;97473.72;4873800;29;983;-78
2022/08/20 08:33:32;;;;;;;;;;;;;;;22.53;30.05;97469.59;4900770;29;980;-78
2022/08/20 08:36:02;;;;;;;;;;;;;;;22.67;29.72;97466.22;4900776;29;927;-78
2022/08/20 08:38:28;;;;;;;;;;;;;;;22.42;30.12;97472.84;4900757;29;944;-78
2022/08/20 08:40:55;;;;;;;;;;;;;;;22.57;29.92;97473.09;4854095;29;993;-78
2022/08/20 08:43:21;;;;;;;;;;;;;;;22.60;29.88;97463.69;4885216;29;976;-78
2022/08/20 08:45:50;;;;;;;;;;;;;;;22.73;29.83;97464.34;4900769;29;1914;-78
2022/08/20 08:48:16;;;;;;;;;;;;;;;22.70;29.85;97470.19;4900473;29;958;-79
2022/08/20 08:50:44;;;;;;;;;;;;;;;22.60;30.20;97460.84;4844448;29;1106;-77
2022/08/20 08:53:10;;;;;;;;;;;;;;;22.80;29.57;97466.94;4840945;29;998;-78
2022/08/20 08:55:35;;;;;;;;;;;;;;;22.67;30.08;97457.72;4850625;29;984;-78
2022/08/20 08:58:01;;;;;;;;;;;;;;;22.37;30.21;97453.63;4881646;29;1255;-78
2022/08/20 09:00:29;;;;;;;;;;;;;;;22.57;30.02;97450.41;4881735;29;1021;-78
2022/08/20 09:03:17;;;;;;;;;;;;;;;22.48;30.25;97456.03;4881550;29;1033;-78
2022/08/20 09:05:47;;;;;;;;;;;;;;;22.48;30.47;97458.88;4808273;29;1909;-79
2022/08/20 09:08:14;;;;;;;;;;;;;;;22.63;30.15;97465.56;4754401;30;998;-78
2022/08/20 09:10:39;;;;;;;;;;;;;;;22.68;29.95;97462.13;4736575;30;1022;-78
2022/08/20 09:13:05;;;;;;;;;;;;;;;22.58;30.32;97464.13;4736398;30;945;-78
2022/08/20 09:15:31;;;;;;;;;;;;;;;22.51;30.40;97458.75;4736286;30;999;-77
2022/08/20 09:17:56;;;;;;;;;;;;;;;22.63;30.09;97463.53;4736483;30;1196;-79
2022/08/20 09:20:22;;;;;;;;;;;;;;;22.43;30.71;97456.63;4736427;30;1750;-77
2022/08/20 09:22:47;;;;;;;;;;;;;;;22.70;30.00;97453.97;4753085;30;1201;-78
2022/08/20 09:25:13;;;;;;;;;;;;;;;22.79;30.15;97453.97;4787557;30;1919;-78
2022/08/20 09:27:38;;;;;;;;;;;;;;;22.63;30.21;97455.00;4771663;30;1096;-79
2022/08/20 09:30:04;;;;;;;;;;;;;;;22.62;30.28;97455.50;4753844;30;1037;-78
2022/08/20 09:32:30;;;;;;;;;;;;;;;22.47;30.47;97440.28;4754090;30;971;-78
2022/08/20 09:34:55;;;;;;;;;;;;;;;22.54;30.66;97445.69;4753779;30;1132;-79
2022/08/20 09:37:21;;;;;;;;;;;;;;;22.52;30.45;97446.13;4753838;30;1086;-78
2022/08/20 09:39:46;;;;;;;;;;;;;;;22.73;30.10;97447.34;4766787;30;960;-78
2022/08/20 09:42:13;;;;;;;;;;;;;;;22.43;30.72;97442.47;4756056;30;1207;-78
2022/08/20 09:44:39;;;;;;;;;;;;;;;22.51;30.39;97436.06;4789190;30;1990;-78
2022/08/20 09:47:04;;;;;;;;;;;;;;;22.85;29.79;97434.34;4815855;29;938;-79
2022/08/20 09:49:30;;;;;;;;;;;;;;;22.76;30.09;97435.06;4828170;29;897;-78
2022/08/20 09:51:55;;;;;;;;;;;;;;;22.60;30.35;97438.94;4862164;29;1016;-78
2022/08/20 09:54:21;;;;;;;;;;;;;;;22.19;29.86;97335.28;4862233;29;1309;-78
2022/08/20 09:56:46;;;;;;;;;;;;;;;22.54;30.74;97435.16;4862634;29;980;-78
2022/08/20 09:59:12;;;;;;;;;;;;;;;22.55;30.53;97435.94;4889211;29;966;-78
2022/08/20 10:01:38;;;;;;;;;;;;;;;22.72;30.24;97420.25;4902603;29;974;-78
2022/08/20 10:04:03;;;;;;;;;;;;;;;22.80;30.25;97432.09;4917406;29;1918;-78
2022/08/20 10:06:29;;;;;;;;;;;;;;;22.57;30.37;97416.41;4918296;29;995;-79
2022/08/20 10:08:54;;;;;;;;;;;;;;;22.77;30.12;97419.63;4917880;29;970;-78
2022/08/20 10:11:19;;;;;;;;;;;;;;;22.78;30.03;97414.75;4918648;29;1013;-78
2022/08/20 10:13:45;;;;;;;;;;;;;;;22.71;30.36;97415.03;4931750;29;858;-78
2022/08/20 10:16:10;;;;;;;;;;;;;;;22.74;30.09;97420.59;4921247;29;1936;-78
2022/08/20 10:18:36;;;;;;;;;;;;;;;22.65;30.45;97422.59;4936779;29;1059;-78
2022/08/20 10:21:01;;;;;;;;;;;;;;;22.45;30.98;97425.81;4936823;29;974;-78
2022/08/20 10:23:27;;;;;;;;;;;;;;;22.62;30.43;97427.13;4937096;29;1214;-78
2022/08/20 10:25:52;;;;;;;;;;;;;;;22.59;30.50;97425.25;4936768;29;1919;-78
2022/08/20 10:28:18;;;;;;;;;;;;;;;22.63;30.44;97421.00;4936750;29;997;-78
2022/08/20 10:30:44;;;;;;;;;;;;;;;22.56;30.38;97418.44;4932439;28;1014;-78
2022/08/20 10:33:09;;;;;;;;;;;;;;;22.61;30.54;97411.38;4977229;28;964;-78
2022/08/20 10:35:34;;;;;;;;;;;;;;;22.75;30.35;97425.00;4977769;28;903;-78
2022/08/20 10:38:00;;;;;;;;;;;;;;;22.85;29.96;97420.16;4977479;28;973;-77
2022/08/20 10:40:25;;;;;;;;;;;;;;;22.66;30.59;97424.94;4977429;28;948;-78
2022/08/20 10:42:51;;;;;;;;;;;;;;;22.76;30.13;97423.72;4977610;28;983;-78
2022/08/20 10:45:16;;;;;;;;;;;;;;;22.56;30.70;97426.16;4977204;28;1906;-78
2022/08/20 10:47:42;;;;;;;;;;;;;;;22.65;30.64;97428.25;4976934;28;942;-79
2022/08/20 10:50:08;;;;;;;;;;;;;;;22.49;30.83;97432.13;4917309;29;1006;-78
2022/08/20 10:52:33;;;;;;;;;;;;;;;22.49;30.68;97434.97;4917668;29;1060;-78
2022/08/20 10:54:59;;;;;;;;;;;;;;;22.52;30.68;97431.19;4917592;29;947;-78
2022/08/20 10:57:25;;;;;;;;;;;;;;;22.73;30.56;97427.50;4917640;29;950;-79
2022/08/20 10:59:51;;;;;;;;;;;;;;;22.83;30.18;97429.09;4936065;29;936;-78
2022/08/20 11:02:17;;;;;;;;;;;;;;;22.75;30.43;97432.72;4920662;29;965;-79
2022/08/20 11:04:42;;;;;;;;;;;;;;;22.92;30.21;97427.59;4935955;29;1981;-79
2022/08/20 11:07:11;;;;;;;;;;;;;;;22.74;30.15;97420.59;4936099;29;989;-78
2022/08/20 11:09:37;;;;;;;;;;;;;;;22.74;30.43;97420.59;4917105;29;916;-78
2022/08/20 11:12:02;;;;;;;;;;;;;;;22.67;30.39;97420.84;4917542;29;882;-78
2022/08/20 11:14:28;;;;;;;;;;;;;;;22.76;30.25;97423.72;4917373;29;912;-79
2022/08/20 11:16:53;;;;;;;;;;;;;;;22.72;30.26;97422.28;4921040;29;945;-78
2022/08/20 11:19:19;;;;;;;;;;;;;;;22.78;30.34;97420.41;4920943;29;1020;-78
2022/08/20 11:21:44;;;;;;;;;;;;;;;22.60;30.45;97409.81;4935775;29;965;-79
2022/08/20 11:24:10;;;;;;;;;;;;;;;22.55;30.91;97413.25;4939958;29;1911;-78
2022/08/20 11:26:35;;;;;;;;;;;;;;;22.43;30.88;97405.63;4939802;29;984;-78
2022/08/20 11:29:00;;;;;;;;;;;;;;;22.82;30.15;97407.69;4939907;29;950;-78
2022/08/20 11:31:26;;;;;;;;;;;;;;;22.81;30.20;97411.78;4954502;29;920;-78
2022/08/20 11:33:51;;;;;;;;;;;;;;;22.66;30.62;97419.28;4959181;29;1014;-78
2022/08/20 11:36:17;;;;;;;;;;;;;;;22.76;30.41;97403.09;4939858;29;921;-78
2022/08/20 11:38:42;;;;;;;;;;;;;;;22.63;30.49;97403.19;4939577;29;1010;-78
2022/08/20 11:41:08;;;;;;;;;;;;;;;22.81;30.01;97397.59;4939599;29;954;-78
2022/08/20 11:43:33;;;;;;;;;;;;;;;22.90;30.16;97399.72;4939918;29;984;-78
2022/08/20 11:45:59;;;;;;;;;;;;;;;22.72;30.21;97405.28;4939466;29;1986;-78
2022/08/20 11:48:24;;;;;;;;;;;;;;;22.75;30.26;97405.13;4939452;29;1042;-78
2022/08/20 11:50:50;;;;;;;;;;;;;;;22.82;30.09;97404.06;4939806;29;892;-78
2022/08/20 11:53:15;;;;;;;;;;;;;;;22.62;30.46;97390.28;4939462;29;937;-78
2022/08/20 11:55:41;;;;;;;;;;;;;;;22.79;30.23;97394.41;4939698;29;972;-78
2022/08/20 11:58:06;;;;;;;;;;;;;;;22.59;30.55;97397.69;4939688;29;1056;-78
2022/08/20 12:00:32;;;;;;;;;;;;;;;22.90;30.24;97385.53;4939612;29;1112;-79
2022/08/20 12:02:57;;;;;;;;;;;;;;;22.78;30.21;97387.16;4939426;29;1054;-79
2022/08/20 12:05:23;;;;;;;;;;;;;;;22.71;30.47;97387.47;4939152;29;1985;-78
2022/08/20 12:07:48;;;;;;;;;;;;;;;22.75;30.29;97385.28;4952890;29;1080;-78
2022/08/20 12:10:14;;;;;;;;;;;;;;;22.66;30.61;97385.25;4958694;29;906;-79
2022/08/20 12:12:39;;;;;;;;;;;;;;;22.71;30.51;97390.31;4958223;29;1084;-79
2022/08/20 12:15:05;;;;;;;;;;;;;;;22.69;30.50;97377.84;4958138;29;1010;-78
2022/08/20 12:17:31;;;;;;;;;;;;;;;22.80;30.14;97379.00;4958520;29;977;-79
2022/08/20 12:19:57;;;;;;;;;;;;;;;22.68;30.34;97374.22;4973864;28;1024;-78
2022/08/20 12:22:23;;;;;;;;;;;;;;;22.78;30.50;97381.50;4979801;28;894;-79
2022/08/20 12:24:48;;;;;;;;;;;;;;;22.72;30.27;97374.09;4979834;28;1972;-79
2022/08/20 12:27:15;;;;;;;;;;;;;;;22.58;30.72;97378.28;4978787;28;903;-78
2022/08/20 12:29:40;;;;;;;;;;;;;;;22.60;30.64;97381.44;4979467;28;913;-78
2022/08/20 12:32:06;;;;;;;;;;;;;;;22.70;30.45;97387.94;4977680;28;921;-78
2022/08/20 12:34:35;;;;;;;;;;;;;;;22.87;30.27;97383.59;4979853;28;927;-78
2022/08/20 12:37:01;;;;;;;;;;;;;;;22.60;30.52;97381.44;4977282;28;1325;-78
2022/08/20 12:39:30;;;;;;;;;;;;;;;22.64;30.63;97387.78;4961483;28;981;-78
2022/08/20 12:41:56;;;;;;;;;;;;;;;22.71;30.72;97387.47;4977087;28;935;-78
2022/08/20 12:44:21;;;;;;;;;;;;;;;22.68;30.71;97365.72;4957578;29;1907;-79
2022/08/20 12:46:47;;;;;;;;;;;;;;;22.65;30.68;97377.22;4958039;29;1100;-79
2022/08/20 12:49:12;;;;;;;;;;;;;;;22.83;30.08;97378.03;4957774;29;910;-78
2022/08/20 12:51:37;;;;;;;;;;;;;;;22.56;30.52;97386.47;4957830;29;986;-78
2022/08/20 12:54:03;;;;;;;;;;;;;;;22.81;30.20;97363.56;4957762;29;965;-78
2022/08/20 12:56:28;;;;;;;;;;;;;;;22.72;30.54;97360.69;4957501;29;1005;-79
2022/08/20 12:58:54;;;;;;;;;;;;;;;22.76;30.50;97367.00;4957627;29;950;-78